createdAt,value
2019-05-23T00:01:16.159Z,98134.03
2019-05-23T00:03:27.378Z,98135.67
2019-05-23T00:05:44.649Z,98147.39
2019-05-23T00:07:53.790Z,98143.48
2019-05-23T00:10:06.009Z,98147.37
2019-05-23T00:12:32.618Z,98146.55
2019-05-23T00:14:51.339Z,98145.47
2019-05-23T00:16:58.953Z,98150.91
2019-05-23T00:19:07.486Z,98163.59
2019-05-23T00:21:16.383Z,98154.16
2019-05-23T00:23:23.755Z,98170.34
2019-05-23T00:25:35.355Z,98175.99
2019-05-23T00:27:44.316Z,98169.84
2019-05-23T00:29:53.754Z,98168.75
2019-05-23T00:32:18.907Z,98178.84
2019-05-23T00:34:27.284Z,98180.98
2019-05-23T00:36:36.156Z,98200.97
2019-05-23T00:38:44.646Z,98195.73
2019-05-23T00:40:53.364Z,98193.61
2019-05-23T00:43:03.045Z,98197.44
2019-05-23T00:45:13.244Z,98204.94
2019-05-23T00:47:20.717Z,98197.64
2019-05-23T00:49:29.675Z,98200.89
2019-05-23T00:51:37.716Z,98176.17
2019-05-23T00:53:45.872Z,98155.25
2019-05-23T00:55:54.226Z,98135.83
2019-05-23T00:58:03.424Z,98157.64
2019-05-23T01:00:13.482Z,98176.61
2019-05-23T01:02:21.637Z,98181.42
2019-05-23T01:04:30.375Z,98178.45
2019-05-23T01:06:39.058Z,98170.16
2019-05-23T01:08:48.301Z,98172.84
2019-05-23T01:10:57.007Z,98171.28
2019-05-23T01:13:04.625Z,98169.59
2019-05-23T01:15:12.833Z,98166.97
2019-05-23T01:17:22.356Z,98166.06
2019-05-23T01:19:30.332Z,98161.06
2019-05-23T01:22:02.851Z,98159.45
2019-05-23T01:24:17.478Z,98150.09
2019-05-23T01:26:25.709Z,98147.77
2019-05-23T01:28:34.466Z,98143.95
2019-05-23T01:30:45.272Z,98153.98
2019-05-23T01:32:55.476Z,98164.08
2019-05-23T01:35:05.133Z,98162.83
2019-05-23T01:37:14.166Z,98159.87
2019-05-23T01:39:21.572Z,98173.41
2019-05-23T01:41:31.092Z,98179.49
2019-05-23T01:43:39.542Z,98171.38
2019-05-23T01:45:47.910Z,98167.84
2019-05-23T01:47:55.367Z,98176.24
2019-05-23T01:50:03.157Z,98174.47
2019-05-23T01:52:12.176Z,98160.91
2019-05-23T01:54:21.697Z,98169.98
2019-05-23T01:56:30.119Z,98177.58
2019-05-23T01:58:37.021Z,98176.11
2019-05-23T02:00:44.938Z,98178.28
2019-05-23T02:02:52.937Z,98188.20
2019-05-23T02:05:01.173Z,98182.33
2019-05-23T02:07:10.226Z,98200.30
2019-05-23T02:09:17.411Z,98209.60
2019-05-23T02:11:26.872Z,98208.81
2019-05-23T02:13:34.273Z,98209.39
2019-05-23T02:15:42.202Z,98194.93
2019-05-23T02:17:49.525Z,98202.56
2019-05-23T02:19:57.326Z,98200.39
2019-05-23T02:22:05.020Z,98198.50
2019-05-23T02:24:13.951Z,98200.36
2019-05-23T02:26:24.142Z,98193.28
2019-05-23T02:28:33.514Z,98195.75
2019-05-23T02:30:40.836Z,98202.19
2019-05-23T02:32:49.779Z,98207.17
2019-05-23T02:34:57.037Z,98200.39
2019-05-23T02:37:06.100Z,98169.69
2019-05-23T02:39:44.123Z,98130.80
2019-05-23T02:42:01.873Z,98176.47
2019-05-23T02:44:13.282Z,98185.91
2019-05-23T02:46:35.976Z,98182.32
2019-05-23T02:48:44.620Z,98176.29
2019-05-23T02:50:56.285Z,98183.01
2019-05-23T02:53:04.045Z,98207.95
2019-05-23T02:55:15.777Z,98216.05
2019-05-23T02:57:27.263Z,98215.88
2019-05-23T02:59:48.787Z,98216.22
2019-05-23T03:02:32.935Z,98222.91
2019-05-23T03:04:41.149Z,98206.19
2019-05-23T03:06:49.817Z,98200.19
2019-05-23T03:08:59.521Z,98191.56
2019-05-23T03:11:46.303Z,98171.45
2019-05-23T03:13:55.082Z,98165.42
2019-05-23T03:16:04.120Z,98160.05
2019-05-23T03:18:14.213Z,98150.59
2019-05-23T03:20:22.595Z,98158.77
2019-05-23T03:22:37.771Z,98163.37
2019-05-23T03:24:45.755Z,98168.86
2019-05-23T03:27:16.167Z,98172.14
2019-05-23T03:29:24.238Z,98183.00
2019-05-23T03:31:47.462Z,98199.03
2019-05-23T03:33:56.393Z,98214.47
2019-05-23T03:36:05.096Z,98249.68
2019-05-23T03:38:13.326Z,98261.03
2019-05-23T03:40:21.144Z,98281.93
2019-05-23T03:42:29.613Z,98288.96
2019-05-23T03:44:39.374Z,98308.25
2019-05-23T03:46:50.336Z,98318.91
2019-05-23T03:48:59.804Z,98327.02
2019-05-23T03:51:10.023Z,98333.94
2019-05-23T03:53:19.590Z,98318.72
2019-05-23T03:55:28.714Z,98318.52
2019-05-23T03:57:37.380Z,98307.05
2019-05-23T03:59:47.002Z,98306.59
2019-05-23T04:01:55.589Z,98316.98
2019-05-23T04:04:05.102Z,98325.98
2019-05-23T04:06:13.302Z,98325.20
2019-05-23T04:08:21.277Z,98318.70
2019-05-23T04:10:30.173Z,98324.34
2019-05-23T04:12:38.584Z,98329.94
2019-05-23T04:14:46.317Z,98319.88
2019-05-23T04:16:54.499Z,98335.25
2019-05-23T04:19:01.651Z,98347.29
2019-05-23T04:21:09.182Z,98345.78
2019-05-23T04:23:17.259Z,98359.79
2019-05-23T04:25:25.872Z,98352.19
2019-05-23T04:27:33.610Z,98349.97
2019-05-23T04:29:40.736Z,98354.90
2019-05-23T04:32:06.373Z,98363.33
2019-05-23T04:33:57.913Z,98356.50
2019-05-23T04:36:06.344Z,98362.29
2019-05-23T04:38:14.075Z,98349.05
2019-05-23T04:40:22.076Z,98322.20
2019-05-23T04:42:30.002Z,98309.50
2019-05-23T04:44:38.107Z,98334.66
2019-05-23T04:46:46.949Z,98347.05
2019-05-23T04:48:54.243Z,98342.41
2019-05-23T04:51:02.108Z,98341.88
2019-05-23T04:53:11.052Z,98336.11
2019-05-23T04:55:19.631Z,98335.62
2019-05-23T04:57:28.108Z,98334.93
2019-05-23T04:59:36.605Z,98342.85
2019-05-23T05:01:44.129Z,98321.44
2019-05-23T05:03:52.683Z,98315.23
2019-05-23T05:06:01.808Z,98303.59
2019-05-23T05:08:10.241Z,98299.95
2019-05-23T05:10:20.381Z,98290.14
2019-05-23T05:12:28.192Z,98271.96
2019-05-23T05:14:35.932Z,98256.80
2019-05-23T05:16:44.122Z,98250.01
2019-05-23T05:18:55.058Z,98249.04
2019-05-23T05:21:01.782Z,98233.26
2019-05-23T05:23:10.157Z,98203.22
2019-05-23T05:25:19.533Z,98199.59
2019-05-23T05:27:27.496Z,98194.63
2019-05-23T05:29:34.702Z,98188.57
2019-05-23T05:31:42.006Z,98199.28
2019-05-23T05:33:49.452Z,98212.56
2019-05-23T05:35:57.697Z,98203.46
2019-05-23T05:38:06.218Z,98207.34
2019-05-23T05:40:15.453Z,98211.48
2019-05-23T05:42:22.836Z,98195.38
2019-05-23T05:44:30.808Z,98204.06
2019-05-23T05:46:38.536Z,98215.13
2019-05-23T05:48:46.385Z,98211.75
2019-05-23T05:50:54.863Z,98231.02
2019-05-23T05:53:03.025Z,98245.77
2019-05-23T05:55:11.064Z,98251.55
2019-05-23T05:57:18.698Z,98154.38
2019-05-23T05:59:25.956Z,98255.47
2019-05-23T06:01:34.660Z,98249.84
2019-05-23T06:03:43.218Z,98261.27
2019-05-23T06:05:58.119Z,98265.58
2019-05-23T06:08:07.159Z,98265.10
2019-05-23T06:10:17.016Z,98256.08
2019-05-23T06:12:24.461Z,98278.98
2019-05-23T06:14:33.078Z,98288.65
2019-05-23T06:16:41.738Z,98301.52
2019-05-23T06:18:49.275Z,98314.38
2019-05-23T06:20:57.481Z,98314.14
2019-05-23T06:23:05.044Z,98288.70
2019-05-23T06:25:13.423Z,98208.34
2019-05-23T06:27:23.029Z,98215.86
2019-05-23T06:29:30.251Z,98235.83
2019-05-23T06:31:38.321Z,98244.30
2019-05-23T06:33:46.543Z,98233.75
2019-05-23T06:35:53.867Z,98229.89
2019-05-23T06:38:01.755Z,98233.75
2019-05-23T06:40:09.798Z,98235.34
2019-05-23T06:42:18.580Z,98230.75
2019-05-23T06:44:26.304Z,98226.77
2019-05-23T06:46:33.472Z,98226.16
2019-05-23T06:48:45.531Z,98233.59
2019-05-23T06:50:50.215Z,98226.98
2019-05-23T06:52:57.571Z,98240.65
2019-05-23T06:55:04.983Z,98237.66
2019-05-23T06:57:12.924Z,98228.01
2019-05-23T06:59:20.622Z,98218.23
2019-05-23T07:01:27.723Z,98217.89
2019-05-23T07:03:42.327Z,98214.81
2019-05-23T07:05:44.463Z,98217.65
2019-05-23T07:07:51.638Z,98215.53
2019-05-23T07:10:00.668Z,98211.81
2019-05-23T07:12:09.667Z,98213.89
2019-05-23T07:14:17.468Z,98216.00
2019-05-23T07:16:24.726Z,98206.75
2019-05-23T07:18:33.290Z,98206.93
2019-05-23T07:20:40.586Z,98205.62
2019-05-23T07:22:47.972Z,98204.03
2019-05-23T07:24:58.775Z,98198.41
2019-05-23T07:27:04.597Z,98203.81
2019-05-23T07:29:13.420Z,98199.76
2019-05-23T07:31:21.886Z,98205.17
2019-05-23T07:33:29.243Z,98215.23
2019-05-23T07:35:36.695Z,98204.40
2019-05-23T07:37:44.104Z,98200.38
2019-05-23T07:39:51.243Z,98200.09
2019-05-23T07:41:58.349Z,98211.75
2019-05-23T07:44:06.283Z,98216.68
2019-05-23T07:46:13.573Z,98229.64
2019-05-23T07:48:21.294Z,98235.30
2019-05-23T07:50:28.610Z,98232.30
2019-05-23T07:52:37.094Z,98232.34
2019-05-23T07:55:03.065Z,98239.36
2019-05-23T07:57:13.828Z,98242.08
2019-05-23T07:59:21.319Z,98205.91
2019-05-23T08:01:30.758Z,98224.13
2019-05-23T08:03:39.130Z,98229.17
2019-05-23T08:05:48.076Z,98240.15
2019-05-23T08:07:56.569Z,98234.94
2019-05-23T08:10:03.843Z,98243.55
2019-05-23T08:12:11.267Z,98238.53
2019-05-23T08:14:18.542Z,98254.86
2019-05-23T08:16:26.660Z,98252.44
2019-05-23T08:18:33.851Z,98233.54
2019-05-23T08:20:40.890Z,98244.66
2019-05-23T08:22:48.987Z,98250.84
2019-05-23T08:24:56.722Z,98258.39
2019-05-23T08:27:05.812Z,98277.87
2019-05-23T08:29:25.429Z,98276.52
2019-05-23T08:31:22.632Z,98273.23
2019-05-23T08:33:29.949Z,98281.56
2019-05-23T08:35:37.797Z,98287.39
2019-05-23T08:37:45.417Z,98289.04
2019-05-23T08:39:52.938Z,98308.47
2019-05-23T08:42:00.795Z,98306.92
2019-05-23T08:44:11.382Z,98318.88
2019-05-23T08:46:17.449Z,98327.88
2019-05-23T08:48:25.353Z,98328.48
2019-05-23T08:50:32.481Z,98342.56
2019-05-23T08:52:39.650Z,98354.27
2019-05-23T08:54:46.932Z,98358.03
2019-05-23T08:56:54.489Z,98361.86
2019-05-23T08:59:02.013Z,98369.16
2019-05-23T09:01:09.872Z,98365.97
2019-05-23T09:03:18.148Z,98358.33
2019-05-23T09:05:26.803Z,98365.62
2019-05-23T09:07:34.337Z,98370.70
2019-05-23T09:09:42.104Z,98385.70
2019-05-23T09:11:49.607Z,98388.22
2019-05-23T09:13:57.223Z,98396.14
2019-05-23T09:16:04.667Z,98410.30
2019-05-23T09:18:12.580Z,98404.21
2019-05-23T09:20:20.045Z,98406.86
2019-05-23T09:22:27.397Z,98417.57
2019-05-23T09:24:34.574Z,98412.01
2019-05-23T09:26:42.038Z,98411.34
2019-05-23T09:28:49.054Z,98417.05
2019-05-23T09:30:56.323Z,98420.19
2019-05-23T09:33:04.497Z,98421.25
2019-05-23T09:35:20.939Z,98418.48
2019-05-23T09:37:21.767Z,98435.31
2019-05-23T09:39:29.057Z,98437.20
2019-05-23T09:41:36.913Z,98438.25
2019-05-23T09:43:44.900Z,98454.73
2019-05-23T09:45:52.804Z,98457.14
2019-05-23T09:48:01.002Z,98454.34
2019-05-23T09:50:11.006Z,98459.98
2019-05-23T09:52:18.433Z,98462.46
2019-05-23T09:54:26.154Z,98458.93
2019-05-23T09:56:33.498Z,98465.34
2019-05-23T09:58:41.411Z,98462.51
2019-05-23T10:00:48.718Z,98460.11
2019-05-23T10:02:57.164Z,98463.88
2019-05-23T10:05:04.352Z,98469.09
2019-05-23T10:07:11.761Z,98479.28
2019-05-23T10:09:19.069Z,98480.41
2019-05-23T10:11:26.888Z,98485.81
2019-05-23T10:13:39.176Z,98489.64
2019-05-23T10:16:17.592Z,98499.22
2019-05-23T10:18:25.339Z,98505.85
2019-05-23T10:20:36.536Z,98512.75
2019-05-23T10:22:43.825Z,98509.41
2019-05-23T10:24:51.842Z,98509.97
2019-05-23T10:26:59.366Z,98518.88
2019-05-23T10:29:06.846Z,98520.99
2019-05-23T10:31:15.231Z,98514.13
2019-05-23T10:33:23.311Z,98505.59
2019-05-23T10:35:31.413Z,98510.77
2019-05-23T10:37:38.796Z,98514.59
2019-05-23T10:39:49.408Z,98524.59
2019-05-23T10:41:57.777Z,98528.95
2019-05-23T10:44:05.478Z,98529.48
2019-05-23T10:46:13.184Z,98536.23
2019-05-23T10:48:21.771Z,98538.42
2019-05-23T10:50:43.738Z,98539.70
2019-05-23T10:52:39.740Z,98548.95
2019-05-23T10:54:46.863Z,98551.58
2019-05-23T10:56:54.090Z,98553.53
2019-05-23T10:59:01.270Z,98552.25
2019-05-23T11:01:09.404Z,98557.53
2019-05-23T11:03:17.551Z,98550.00
2019-05-23T11:05:25.765Z,98554.66
2019-05-23T11:07:34.077Z,98563.59
2019-05-23T11:09:41.451Z,98561.65
2019-05-23T11:11:48.670Z,98569.08
2019-05-23T11:13:57.383Z,98581.72
2019-05-23T11:16:04.806Z,98581.84
2019-05-23T11:18:12.441Z,98600.52
2019-05-23T11:20:20.924Z,98604.91
2019-05-23T11:22:28.900Z,98609.38
2019-05-23T11:24:36.536Z,98613.08
2019-05-23T11:26:43.718Z,98604.94
2019-05-23T11:28:50.973Z,98598.30
2019-05-23T11:31:00.270Z,98605.25
2019-05-23T11:33:07.572Z,98607.47
2019-05-23T11:35:16.650Z,98605.89
2019-05-23T11:37:25.256Z,98604.81
2019-05-23T11:39:33.688Z,98612.03
2019-05-23T11:41:41.142Z,98607.97
2019-05-23T11:43:49.854Z,98608.55
2019-05-23T11:46:11.229Z,98614.45
2019-05-23T11:48:19.334Z,98608.84
2019-05-23T11:50:26.604Z,98608.95
2019-05-23T11:52:33.920Z,98616.30
2019-05-23T11:54:41.571Z,98618.20
2019-05-23T11:56:49.389Z,98602.59
2019-05-23T11:59:00.928Z,98612.09
2019-05-23T12:01:23.971Z,98607.91
2019-05-23T12:03:31.173Z,98594.73
2019-05-23T12:05:39.114Z,98601.40
2019-05-23T12:07:47.145Z,98606.67
2019-05-23T12:09:54.626Z,98612.86
2019-05-23T12:12:01.840Z,98611.34
2019-05-23T12:14:10.008Z,98615.20
2019-05-23T12:16:17.726Z,98612.34
2019-05-23T12:18:24.969Z,98610.64
2019-05-23T12:20:32.278Z,98604.18
2019-05-23T12:22:40.484Z,98616.96
2019-05-23T12:24:48.049Z,98605.30
2019-05-23T12:26:55.824Z,98603.42
2019-05-23T12:29:03.304Z,98595.46
2019-05-23T12:31:10.598Z,98600.93
2019-05-23T12:33:17.969Z,98613.83
2019-05-23T12:35:25.078Z,98613.98
2019-05-23T12:37:32.216Z,98618.43
2019-05-23T12:39:39.419Z,98612.55
2019-05-23T12:41:47.293Z,98617.58
2019-05-23T12:43:54.698Z,98623.68
2019-05-23T12:46:01.995Z,98635.93
2019-05-23T12:48:16.598Z,98646.10
2019-05-23T12:50:26.983Z,98641.88
2019-05-23T12:52:34.883Z,98640.45
2019-05-23T12:54:44.363Z,98659.02
2019-05-23T12:56:52.888Z,98658.73
2019-05-23T12:59:01.140Z,98667.16
2019-05-23T13:01:10.139Z,98666.96
2019-05-23T13:03:17.725Z,98681.47
2019-05-23T13:05:28.553Z,98689.76
2019-05-23T13:07:38.703Z,98703.73
2019-05-23T13:09:46.868Z,98711.63
2019-05-23T13:11:54.690Z,98715.00
2019-05-23T13:14:02.659Z,98702.05
2019-05-23T13:16:11.885Z,98693.52
2019-05-23T13:18:19.757Z,98687.88
2019-05-23T13:20:28.368Z,98685.37
2019-05-23T13:22:36.335Z,98681.97
2019-05-23T13:24:52.458Z,98687.42
2019-05-23T13:26:53.638Z,98691.09
2019-05-23T13:29:02.053Z,98692.50
2019-05-23T13:31:10.460Z,98691.55
2019-05-23T13:33:17.815Z,98696.23
2019-05-23T13:35:25.867Z,98691.15
2019-05-23T13:37:33.111Z,98701.02
2019-05-23T13:39:39.966Z,98700.82
2019-05-23T13:41:47.671Z,98696.29
2019-05-23T13:43:55.566Z,98708.19
2019-05-23T13:46:03.393Z,98700.95
2019-05-23T13:48:11.262Z,98695.08
2019-05-23T13:50:19.430Z,98713.02
2019-05-23T13:52:26.663Z,98718.86
2019-05-23T13:54:36.434Z,98709.14
2019-05-23T13:56:47.504Z,98726.76
2019-05-23T13:58:53.287Z,98711.43
2019-05-23T14:01:01.474Z,98734.06
2019-05-23T14:03:09.499Z,98742.48
2019-05-23T14:05:19.501Z,98740.61
2019-05-23T14:07:28.596Z,98737.89
2019-05-23T14:09:36.697Z,98752.07
2019-05-23T14:11:44.203Z,98743.94
2019-05-23T14:13:59.553Z,98744.77
2019-05-23T14:16:01.975Z,98746.19
2019-05-23T14:18:09.923Z,98751.55
2019-05-23T14:20:17.944Z,98744.01
2019-05-23T14:22:25.362Z,98746.19
2019-05-23T14:24:37.302Z,98754.61
2019-05-23T14:26:48.286Z,98753.13
2019-05-23T14:28:56.029Z,98750.18
2019-05-23T14:31:12.530Z,98749.19
2019-05-23T14:33:28.675Z,98755.73
2019-05-23T14:35:37.656Z,98756.26
2019-05-23T14:37:47.463Z,98757.32
2019-05-23T14:40:01.457Z,98760.63
2019-05-23T14:42:30.643Z,98751.66
2019-05-23T14:45:09.730Z,98762.08
2019-05-23T14:47:38.774Z,98755.59
2019-05-23T14:49:53.016Z,98753.08
2019-05-23T14:52:34.626Z,98755.66
2019-05-23T14:54:47.763Z,98745.34
2019-05-23T14:56:55.544Z,98750.23
2019-05-23T14:59:02.908Z,98759.48
2019-05-23T15:01:11.864Z,98761.20
2019-05-23T15:03:19.294Z,98767.02
2019-05-23T15:05:26.951Z,98770.55
2019-05-23T15:07:35.303Z,98770.27
2019-05-23T15:09:43.051Z,98772.27
2019-05-23T15:11:56.968Z,98769.03
2019-05-23T15:14:05.402Z,98757.83
2019-05-23T15:16:13.206Z,98771.45
2019-05-23T15:18:20.580Z,98774.16
2019-05-23T15:20:28.234Z,98768.80
2019-05-23T15:22:35.990Z,98771.07
2019-05-23T15:24:43.975Z,98782.04
2019-05-23T15:26:51.545Z,98790.41
2019-05-23T15:28:58.840Z,98782.51
2019-05-23T15:31:08.256Z,98783.27
2019-05-23T15:33:15.468Z,98788.53
2019-05-23T15:35:23.820Z,98792.83
2019-05-23T15:37:31.695Z,98796.66
2019-05-23T15:39:39.349Z,98801.85
2019-05-23T15:41:46.632Z,98788.59
2019-05-23T15:43:53.957Z,98802.04
2019-05-23T15:46:01.133Z,98795.49
2019-05-23T15:48:08.719Z,98785.70
2019-05-23T15:50:18.226Z,98781.70
2019-05-23T15:52:59.710Z,98780.64
2019-05-23T15:55:15.221Z,98775.57
2019-05-23T15:57:33.410Z,98779.28
2019-05-23T15:59:59.356Z,98791.84
2019-05-23T16:02:17.304Z,98782.59
2019-05-23T16:04:24.898Z,98789.77
2019-05-23T16:06:33.681Z,98783.41
2019-05-23T16:08:41.140Z,98791.94
2019-05-23T16:10:49.949Z,98797.59
2019-05-23T16:12:57.954Z,98796.19
2019-05-23T16:15:05.795Z,98786.69
2019-05-23T16:17:13.723Z,98791.15
2019-05-23T16:19:21.434Z,98795.34
2019-05-23T16:21:30.541Z,98792.86
2019-05-23T16:23:38.038Z,98798.58
2019-05-23T16:25:45.376Z,98800.38
2019-05-23T16:27:53.179Z,98802.57
2019-05-23T16:30:00.256Z,98796.37
2019-05-23T16:32:07.562Z,98796.31
2019-05-23T16:34:14.674Z,98801.12
2019-05-23T16:36:22.523Z,98792.09
2019-05-23T16:38:29.749Z,98762.22
2019-05-23T16:40:37.170Z,98804.37
2019-05-23T16:42:45.378Z,98787.55
2019-05-23T16:44:53.370Z,98795.78
2019-05-23T16:47:13.515Z,98804.13
2019-05-23T16:49:20.779Z,98814.28
2019-05-23T16:51:28.001Z,98808.27
2019-05-23T16:53:37.113Z,98812.69
2019-05-23T16:55:57.508Z,98811.13
2019-05-23T16:58:11.847Z,98809.53
2019-05-23T17:00:38.105Z,98814.91
2019-05-23T17:02:52.110Z,98811.13
2019-05-23T17:05:18.265Z,98813.02
2019-05-23T17:07:53.707Z,98820.00
2019-05-23T17:10:14.626Z,98814.95
2019-05-23T17:12:36.752Z,98825.52
2019-05-23T17:14:52.061Z,98827.41
2019-05-23T17:17:15.923Z,98822.09
2019-05-23T17:19:48.248Z,98813.72
2019-05-23T17:22:01.705Z,98812.59
2019-05-23T17:24:25.897Z,98819.37
2019-05-23T17:27:03.788Z,98820.80
2019-05-23T17:29:24.466Z,98827.77
2019-05-23T17:31:35.458Z,98838.23
2019-05-23T17:33:42.942Z,98843.13
2019-05-23T17:35:50.829Z,98852.11
2019-05-23T17:37:58.113Z,98851.63
2019-05-23T17:40:28.441Z,98859.48
2019-05-23T17:42:56.528Z,98852.16
2019-05-23T17:45:04.791Z,98819.97
2019-05-23T17:47:12.040Z,98858.83
2019-05-23T17:49:20.116Z,98863.96
2019-05-23T17:51:27.867Z,98856.29
2019-05-23T17:53:35.421Z,98860.48
2019-05-23T17:55:42.683Z,98854.81
2019-05-23T17:57:50.731Z,98850.59
2019-05-23T17:59:59.277Z,98851.95
2019-05-23T18:02:07.838Z,98866.45
2019-05-23T18:04:15.870Z,98858.06
2019-05-23T18:06:24.133Z,98863.84
2019-05-23T18:08:32.312Z,98870.16
2019-05-23T18:10:45.584Z,98860.22
2019-05-23T18:12:49.643Z,98861.58
2019-05-23T18:14:57.067Z,98874.53
2019-05-23T18:17:06.849Z,98864.38
2019-05-23T18:19:14.848Z,98873.80
2019-05-23T18:21:22.260Z,98876.21
2019-05-23T18:23:30.212Z,98884.21
2019-05-23T18:25:37.870Z,98875.30
2019-05-23T18:27:47.170Z,98877.57
2019-05-23T18:29:55.581Z,98879.96
2019-05-23T18:32:05.309Z,98874.50
2019-05-23T18:34:14.842Z,98867.59
2019-05-23T18:36:22.701Z,98880.34
2019-05-23T18:38:31.228Z,98877.74
2019-05-23T18:41:01.689Z,98857.46
2019-05-23T18:42:54.812Z,98864.99
2019-05-23T18:45:02.059Z,98863.58
2019-05-23T18:47:14.734Z,98867.00
2019-05-23T18:49:23.390Z,98859.73
2019-05-23T18:51:31.484Z,98853.25
2019-05-23T18:53:38.868Z,98857.80
2019-05-23T18:55:46.208Z,98848.84
2019-05-23T18:57:54.322Z,98849.42
2019-05-23T19:00:01.922Z,98853.88
2019-05-23T19:02:18.729Z,98850.92
2019-05-23T19:04:25.968Z,98847.77
2019-05-23T19:06:34.578Z,98845.35
2019-05-23T19:08:43.852Z,98848.66
2019-05-23T19:10:51.012Z,98849.86
2019-05-23T19:13:01.203Z,98847.97
2019-05-23T19:15:10.830Z,98843.89
2019-05-23T19:17:19.169Z,98839.29
2019-05-23T19:19:26.714Z,98853.34
2019-05-23T19:21:35.034Z,98839.97
2019-05-23T19:23:42.447Z,98834.02
2019-05-23T19:25:50.525Z,98827.11
2019-05-23T19:27:57.980Z,98822.27
2019-05-23T19:30:06.167Z,98828.58
2019-05-23T19:32:14.337Z,98839.82
2019-05-23T19:34:21.818Z,98826.00
2019-05-23T19:36:29.222Z,98830.08
2019-05-23T19:38:38.144Z,98833.67
2019-05-23T19:40:46.455Z,98829.89
2019-05-23T19:42:54.044Z,98831.28
2019-05-23T19:45:02.340Z,98835.65
2019-05-23T19:47:11.139Z,98836.23
2019-05-23T19:49:19.931Z,98844.67
2019-05-23T19:51:27.438Z,98836.09
2019-05-23T19:53:56.430Z,98843.85
2019-05-23T19:56:04.489Z,98848.70
2019-05-23T19:58:12.044Z,98847.92
2019-05-23T20:00:21.274Z,98841.61
2019-05-23T20:02:42.540Z,98848.41
2019-05-23T20:05:00.268Z,98835.70
2019-05-23T20:07:08.464Z,98850.83
2019-05-23T20:09:19.915Z,98837.24
2019-05-23T20:11:27.341Z,98833.80
2019-05-23T20:13:34.801Z,98832.50
2019-05-23T20:15:45.626Z,98825.25
2019-05-23T20:17:52.210Z,98831.03
2019-05-23T20:20:00.158Z,98825.25
2019-05-23T20:22:24.237Z,98829.67
2019-05-23T20:24:57.243Z,98825.95
2019-05-23T20:27:06.158Z,98825.36
2019-05-23T20:29:13.667Z,98826.42
2019-05-23T20:31:21.199Z,98829.67
2019-05-23T20:33:28.698Z,98829.09
2019-05-23T20:35:35.969Z,98835.22
2019-05-23T20:37:43.875Z,98830.93
2019-05-23T20:39:51.172Z,98828.84
2019-05-23T20:42:10.940Z,98827.25
2019-05-23T20:44:07.455Z,98831.52
2019-05-23T20:46:15.908Z,98841.66
2019-05-23T20:48:24.318Z,98841.32
2019-05-23T20:50:32.594Z,98835.83
2019-05-23T20:52:39.948Z,98844.91
2019-05-23T20:54:47.984Z,98850.98
2019-05-23T20:56:55.484Z,98844.20
2019-05-23T20:59:03.673Z,98849.34
2019-05-23T21:01:29.261Z,98840.65
2019-05-23T21:03:37.145Z,98841.72
2019-05-23T21:05:44.315Z,98847.23
2019-05-23T21:07:51.692Z,98842.20
2019-05-23T21:10:00.278Z,98845.11
2019-05-23T21:12:08.142Z,98839.96
2019-05-23T21:14:17.273Z,98849.17
2019-05-23T21:16:24.691Z,98847.53
2019-05-23T21:18:32.703Z,98850.05
2019-05-23T21:20:41.760Z,98852.48
2019-05-23T21:22:49.146Z,98858.42
2019-05-23T21:24:56.491Z,98862.42
2019-05-23T21:27:03.730Z,98869.12
2019-05-23T21:29:11.746Z,98857.86
2019-05-23T21:31:23.869Z,98870.39
2019-05-23T21:33:31.848Z,98867.23
2019-05-23T21:35:40.168Z,98863.83
2019-05-23T21:37:47.731Z,98869.48
2019-05-23T21:39:55.651Z,98872.81
2019-05-23T21:42:03.104Z,98879.60
2019-05-23T21:44:10.547Z,98878.98
2019-05-23T21:46:18.257Z,98882.48
2019-05-23T21:48:25.721Z,98889.98
2019-05-23T21:50:33.480Z,98884.08
2019-05-23T21:52:41.811Z,98885.67
2019-05-23T21:54:49.443Z,98882.42
2019-05-23T21:56:59.323Z,98887.86
2019-05-23T21:59:06.813Z,98890.58
2019-05-23T22:01:34.597Z,98885.73
2019-05-23T22:03:43.735Z,98891.54
2019-05-23T22:05:51.155Z,98890.87
2019-05-23T22:08:00.051Z,98894.47
2019-05-23T22:10:08.513Z,98904.80
2019-05-23T22:12:16.533Z,98892.23
2019-05-23T22:14:24.818Z,98907.84
2019-05-23T22:16:32.130Z,98900.73
2019-05-23T22:18:39.591Z,98904.30
2019-05-23T22:20:47.289Z,98901.88
2019-05-23T22:22:54.365Z,98902.17
2019-05-23T22:25:02.854Z,98901.88
2019-05-23T22:27:11.121Z,98904.89
2019-05-23T22:29:18.410Z,98904.30
2019-05-23T22:31:26.657Z,98901.20
2019-05-23T22:33:37.504Z,98904.51
2019-05-23T22:35:44.844Z,98907.31
2019-05-23T22:38:07.407Z,98903.34
2019-05-23T22:40:14.709Z,98898.97
2019-05-23T22:42:22.260Z,98904.30
2019-05-23T22:44:29.588Z,98904.59
2019-05-23T22:46:37.203Z,98904.11
2019-05-23T22:48:44.355Z,98905.19
2019-05-23T22:50:51.644Z,98901.69
2019-05-23T22:52:59.419Z,98895.19
2019-05-23T22:55:06.727Z,98898.92
2019-05-23T22:57:14.409Z,98894.61
2019-05-23T22:59:22.442Z,98884.32
2019-05-23T23:01:30.914Z,98884.38
2019-05-23T23:03:38.328Z,98889.52
2019-05-23T23:05:45.632Z,98883.01
2019-05-23T23:07:53.302Z,98881.50
2019-05-23T23:10:01.167Z,98896.68
2019-05-23T23:12:08.476Z,98888.72
2019-05-23T23:14:15.682Z,98849.12
2019-05-23T23:16:23.027Z,98890.42
2019-05-23T23:18:30.124Z,98890.90
2019-05-23T23:20:40.404Z,98879.56
2019-05-23T23:22:49.349Z,98873.48
2019-05-23T23:24:58.198Z,98884.41
2019-05-23T23:27:07.537Z,98874.45
2019-05-23T23:29:14.920Z,98878.14
2019-05-23T23:32:13.964Z,98882.88
2019-05-23T23:34:21.205Z,98874.05
2019-05-23T23:36:29.246Z,98870.77
2019-05-23T23:38:36.522Z,98864.34
2019-05-23T23:40:44.144Z,98875.23
2019-05-23T23:42:51.312Z,98879.91
2019-05-23T23:45:16.392Z,98873.02
2019-05-23T23:47:41.957Z,98877.47
2019-05-23T23:50:07.133Z,98874.45
2019-05-23T23:52:32.424Z,98868.89
2019-05-23T23:54:57.933Z,98883.70
2019-05-23T23:57:24.194Z,98883.55
2019-05-23T23:59:31.638Z,98888.30
